createdAt,value
2019-02-10T00:00:10.931Z,7.40
2019-02-10T00:03:46.993Z,5.23
2019-02-10T00:06:24.269Z,6.60
2019-02-10T00:08:47.982Z,7.40
2019-02-10T00:11:17.627Z,10.50
2019-02-10T00:13:47.247Z,9.20
2019-02-10T00:16:21.854Z,7.87
2019-02-10T00:18:51.575Z,9.03
2019-02-10T00:21:21.233Z,8.37
2019-02-10T00:23:50.876Z,5.60
2019-02-10T00:26:20.465Z,3.80
2019-02-10T00:28:50.115Z,9.27
2019-02-10T00:31:19.759Z,5.93
2019-02-10T00:33:49.348Z,3.80
2019-02-10T00:36:18.934Z,6.50
2019-02-10T00:38:50.859Z,5.27
2019-02-10T00:41:20.591Z,7.67
2019-02-10T00:43:50.177Z,5.23
2019-02-10T00:46:19.834Z,4.93
2019-02-10T00:48:49.423Z,6.17
2019-02-10T00:51:19.022Z,7.60
2019-02-10T00:53:48.686Z,3.13
2019-02-10T00:56:18.313Z,9.20
2019-02-10T00:58:47.967Z,8.70
2019-02-10T01:01:17.648Z,6.70
2019-02-10T01:03:47.386Z,5.07
2019-02-10T01:06:17.059Z,4.70
2019-02-10T01:08:46.711Z,4.50
2019-02-10T01:11:16.364Z,4.03
2019-02-10T01:13:46.107Z,7.03
2019-02-10T01:16:15.712Z,7.67
2019-02-10T01:19:12.498Z,14.77
2019-02-10T01:21:43.655Z,9.03
2019-02-10T01:24:13.247Z,8.77
2019-02-10T01:26:42.980Z,5.07
2019-02-10T01:29:12.625Z,8.73
2019-02-10T01:31:42.222Z,7.27
2019-02-10T01:34:11.883Z,5.60
2019-02-10T01:36:49.214Z,7.27
2019-02-10T01:39:19.547Z,9.47
2019-02-10T01:41:49.191Z,5.07
2019-02-10T01:44:18.909Z,4.40
2019-02-10T01:46:48.641Z,6.63
2019-02-10T01:49:18.343Z,5.93
2019-02-10T01:51:47.986Z,1.87
2019-02-10T01:54:17.691Z,3.33
2019-02-10T01:56:47.287Z,5.93
2019-02-10T01:59:16.910Z,8.27
2019-02-10T02:01:46.571Z,2.50
2019-02-10T02:04:16.251Z,5.80
2019-02-10T02:06:45.895Z,6.40
2019-02-10T02:09:16.056Z,3.80
2019-02-10T02:11:45.642Z,5.63
2019-02-10T02:14:15.292Z,5.97
2019-02-10T02:16:44.939Z,4.10
2019-02-10T02:19:14.583Z,5.53
2019-02-10T02:21:44.223Z,7.40
2019-02-10T02:24:13.830Z,10.93
2019-02-10T02:26:43.456Z,7.60
2019-02-10T02:29:13.075Z,5.33
2019-02-10T02:31:42.652Z,3.57
2019-02-10T02:34:12.316Z,8.23
2019-02-10T02:36:45.155Z,14.47
2019-02-10T02:39:14.795Z,5.67
2019-02-10T02:41:44.433Z,6.57
2019-02-10T02:44:14.146Z,5.23
2019-02-10T02:46:43.770Z,7.33
2019-02-10T02:49:13.414Z,5.87
2019-02-10T02:51:43.052Z,7.87
2019-02-10T02:54:12.697Z,7.63
2019-02-10T02:56:42.282Z,4.80
2019-02-10T02:59:11.934Z,4.87
2019-02-10T03:01:41.540Z,7.50
2019-02-10T03:04:11.166Z,7.17
2019-02-10T03:06:47.069Z,8.00
2019-02-10T03:09:17.041Z,9.77
2019-02-10T03:11:46.717Z,8.33
2019-02-10T03:14:16.320Z,4.07
2019-02-10T03:16:45.948Z,9.07
2019-02-10T03:19:15.535Z,7.30
2019-02-10T03:21:45.224Z,7.07
2019-02-10T03:24:14.828Z,7.27
2019-02-10T03:26:44.461Z,7.60
2019-02-10T03:29:14.026Z,6.87
2019-02-10T03:31:43.622Z,6.37
2019-02-10T03:34:13.271Z,5.97
2019-02-10T03:36:42.898Z,8.03
2019-02-10T03:39:12.534Z,7.93
2019-02-10T03:41:42.125Z,6.03
2019-02-10T03:44:11.758Z,10.90
2019-02-10T03:46:41.414Z,13.57
2019-02-10T03:49:11.206Z,6.30
2019-02-10T03:51:40.769Z,5.87
2019-02-10T03:54:10.331Z,4.53
2019-02-10T03:56:39.967Z,6.73
2019-02-10T03:59:09.611Z,8.60
2019-02-10T04:01:39.194Z,3.87
2019-02-10T04:04:08.936Z,5.93
2019-02-10T04:06:38.641Z,7.07
2019-02-10T04:09:08.272Z,8.43
2019-02-10T04:11:37.918Z,9.43
2019-02-10T04:14:07.576Z,3.27
2019-02-10T04:16:37.163Z,6.47
2019-02-10T04:19:06.750Z,11.20
2019-02-10T04:21:36.392Z,9.77
2019-02-10T04:24:05.984Z,5.17
2019-02-10T04:26:35.683Z,6.70
2019-02-10T04:29:05.255Z,3.50
2019-02-10T04:31:34.890Z,6.30
2019-02-10T04:34:04.466Z,7.43
2019-02-10T04:36:34.062Z,9.07
2019-02-10T04:39:04.602Z,9.30
2019-02-10T04:41:34.240Z,6.30
2019-02-10T04:44:03.886Z,4.87
2019-02-10T04:46:33.469Z,7.50
2019-02-10T04:49:03.082Z,7.67
2019-02-10T04:51:32.688Z,6.63
2019-02-10T04:54:02.318Z,6.40
2019-02-10T04:56:31.935Z,6.70
2019-02-10T04:59:01.675Z,4.97
2019-02-10T05:01:31.317Z,6.60
2019-02-10T05:04:00.906Z,8.60
2019-02-10T05:06:30.563Z,7.63
2019-02-10T05:09:00.137Z,4.20
2019-02-10T05:11:29.790Z,5.63
2019-02-10T05:13:59.419Z,5.37
2019-02-10T05:16:28.988Z,6.43
2019-02-10T05:18:58.628Z,7.23
2019-02-10T05:21:28.239Z,6.77
2019-02-10T05:24:03.510Z,5.13
2019-02-10T05:26:29.126Z,3.77
2019-02-10T05:28:58.762Z,6.23
2019-02-10T05:31:28.376Z,4.87
2019-02-10T05:33:57.958Z,8.57
2019-02-10T05:36:27.589Z,5.30
2019-02-10T05:38:57.175Z,5.87
2019-02-10T05:41:26.822Z,4.17
2019-02-10T05:43:56.414Z,4.13
2019-02-10T05:46:26.044Z,10.13
2019-02-10T05:48:55.669Z,4.87
2019-02-10T05:51:25.265Z,6.30
2019-02-10T05:53:54.918Z,3.47
2019-02-10T05:56:24.549Z,3.57
2019-02-10T05:58:54.178Z,6.83
2019-02-10T06:02:01.434Z,4.00
2019-02-10T06:04:32.363Z,3.87
2019-02-10T06:07:04.308Z,7.73
2019-02-10T06:09:33.915Z,7.67
2019-02-10T06:12:03.561Z,5.03
2019-02-10T06:14:33.192Z,5.77
2019-02-10T06:17:02.849Z,10.03
2019-02-10T06:19:32.434Z,4.57
2019-02-10T06:22:02.010Z,8.10
2019-02-10T06:24:31.652Z,8.97
2019-02-10T06:27:01.331Z,11.13
2019-02-10T06:29:30.961Z,9.80
2019-02-10T06:32:00.537Z,8.23
2019-02-10T06:34:30.181Z,8.10
2019-02-10T06:36:59.774Z,3.97
2019-02-10T06:39:29.359Z,7.77
2019-02-10T06:41:58.999Z,6.40
2019-02-10T06:44:28.677Z,10.03
2019-02-10T06:46:58.347Z,9.17
2019-02-10T06:49:27.981Z,7.67
2019-02-10T06:51:57.673Z,6.87
2019-02-10T06:54:27.268Z,4.83
2019-02-10T06:56:56.925Z,3.73
2019-02-10T06:59:33.797Z,8.70
2019-02-10T07:02:10.828Z,8.10
2019-02-10T07:04:40.486Z,8.30
2019-02-10T07:07:10.076Z,5.57
2019-02-10T07:09:39.753Z,6.27
2019-02-10T07:12:49.539Z,9.63
2019-02-10T07:15:55.082Z,6.67
2019-02-10T07:19:00.741Z,7.97
2019-02-10T07:21:36.828Z,5.00
2019-02-10T07:24:41.449Z,10.60
2019-02-10T07:27:31.401Z,5.87
2019-02-10T07:30:42.981Z,4.13
2019-02-10T07:33:44.925Z,5.50
2019-02-10T07:36:28.273Z,5.60
2019-02-10T07:39:38.882Z,8.30
2019-02-10T07:42:34.504Z,4.47
2019-02-10T07:46:06.156Z,9.93
2019-02-10T07:48:50.206Z,10.70
2019-02-10T07:51:35.535Z,6.37
2019-02-10T07:54:45.893Z,12.73
2019-02-10T07:58:05.495Z,7.43
2019-02-10T08:00:49.299Z,8.50
2019-02-10T08:03:56.671Z,7.60
2019-02-10T08:07:20.619Z,9.23
2019-02-10T08:10:06.928Z,7.70
2019-02-10T08:13:29.848Z,8.50
2019-02-10T08:16:27.801Z,8.13
2019-02-10T08:19:30.395Z,10.70
2019-02-10T08:22:16.212Z,3.27
2019-02-10T08:25:45.011Z,7.67
2019-02-10T08:28:42.861Z,6.37
2019-02-10T08:31:42.821Z,7.37
2019-02-10T08:34:53.457Z,11.83
2019-02-10T08:37:46.527Z,5.90
2019-02-10T08:41:09.337Z,5.47
2019-02-10T08:44:34.536Z,10.30
2019-02-10T08:47:57.160Z,9.13
2019-02-10T08:51:03.519Z,7.80
2019-02-10T08:53:39.847Z,10.57
2019-02-10T08:56:09.514Z,12.60
2019-02-10T08:58:39.215Z,12.23
2019-02-10T09:01:08.876Z,11.73
2019-02-10T09:03:38.628Z,9.43
2019-02-10T09:06:08.215Z,15.70
2019-02-10T09:08:37.930Z,9.00
2019-02-10T09:11:07.532Z,12.10
2019-02-10T09:13:37.359Z,7.03
2019-02-10T09:16:06.963Z,6.20
2019-02-10T09:18:36.619Z,9.90
2019-02-10T09:21:06.215Z,9.30
2019-02-10T09:23:35.849Z,9.77
2019-02-10T09:26:05.458Z,8.17
2019-02-10T09:28:35.095Z,5.70
2019-02-10T09:31:04.695Z,8.50
2019-02-10T09:33:34.283Z,5.53
2019-02-10T09:36:03.922Z,6.60
2019-02-10T09:38:33.513Z,7.17
2019-02-10T09:41:03.350Z,8.03
2019-02-10T09:43:32.943Z,9.13
2019-02-10T09:46:02.571Z,7.47
2019-02-10T09:48:32.232Z,4.63
2019-02-10T09:51:01.819Z,7.80
2019-02-10T09:53:31.595Z,5.80
2019-02-10T09:56:01.321Z,5.80
2019-02-10T09:58:31.454Z,8.67
2019-02-10T10:01:01.792Z,10.07
2019-02-10T10:03:32.883Z,7.80
2019-02-10T10:06:02.748Z,6.53
2019-02-10T10:08:32.449Z,8.20
2019-02-10T10:11:02.225Z,7.00
2019-02-10T10:13:32.074Z,8.17
2019-02-10T10:16:01.954Z,10.37
2019-02-10T10:18:31.649Z,8.00
2019-02-10T10:21:01.398Z,7.53
2019-02-10T10:23:31.106Z,4.20
2019-02-10T10:26:00.862Z,5.33
2019-02-10T10:28:30.458Z,6.80
2019-02-10T10:31:00.204Z,12.20
2019-02-10T10:33:31.953Z,7.13
2019-02-10T10:36:01.939Z,7.40
2019-02-10T10:38:31.572Z,5.70
2019-02-10T10:41:04.459Z,6.43
2019-02-10T10:43:34.096Z,11.00
2019-02-10T10:46:03.880Z,3.93
2019-02-10T10:48:33.652Z,8.33
2019-02-10T10:51:03.445Z,4.03
2019-02-10T10:53:38.348Z,7.63
2019-02-10T10:56:08.210Z,2.87
2019-02-10T10:58:38.397Z,3.83
2019-02-10T11:01:08.186Z,7.77
2019-02-10T11:03:37.850Z,6.30
2019-02-10T11:06:07.626Z,3.60
2019-02-10T11:08:37.511Z,6.23
2019-02-10T11:11:07.278Z,5.43
2019-02-10T11:13:37.128Z,5.43
2019-02-10T11:16:06.866Z,6.53
2019-02-10T11:18:37.701Z,3.13
2019-02-10T11:21:07.413Z,8.70
2019-02-10T11:23:37.549Z,5.00
2019-02-10T11:26:07.271Z,8.93
2019-02-10T11:28:37.051Z,7.27
2019-02-10T11:31:06.923Z,2.63
2019-02-10T11:33:36.532Z,3.83
2019-02-10T11:36:06.333Z,6.10
2019-02-10T11:38:36.801Z,4.73
2019-02-10T11:41:08.774Z,5.07
2019-02-10T11:43:38.499Z,4.73
2019-02-10T11:46:08.184Z,3.30
2019-02-10T11:48:38.099Z,4.90
2019-02-10T11:51:08.763Z,5.87
2019-02-10T11:53:39.518Z,2.30
2019-02-10T11:56:09.298Z,4.70
2019-02-10T11:58:39.366Z,5.47
2019-02-10T12:01:09.513Z,3.37
2019-02-10T12:03:39.320Z,3.23
2019-02-10T12:06:09.035Z,7.13
2019-02-10T12:08:38.774Z,4.63
2019-02-10T12:11:08.448Z,4.87
2019-02-10T12:13:39.219Z,4.20
2019-02-10T12:16:09.605Z,5.07
2019-02-10T12:18:39.257Z,3.23
2019-02-10T12:21:08.984Z,2.63
2019-02-10T12:23:38.611Z,4.20
2019-02-10T12:26:08.397Z,3.07
2019-02-10T12:28:38.303Z,2.83
2019-02-10T12:31:08.031Z,3.63
2019-02-10T12:33:37.723Z,6.50
2019-02-10T12:36:07.595Z,2.73
2019-02-10T12:38:37.383Z,2.13
2019-02-10T12:41:07.568Z,3.10
2019-02-10T12:43:38.545Z,4.40
2019-02-10T12:46:09.048Z,2.40
2019-02-10T12:48:43.424Z,6.17
2019-02-10T12:51:14.349Z,2.60
2019-02-10T12:53:50.820Z,1.87
2019-02-10T12:56:33.461Z,3.63
2019-02-10T12:59:17.711Z,2.03
2019-02-10T13:01:47.633Z,3.37
2019-02-10T13:04:18.105Z,1.80
2019-02-10T13:06:47.818Z,3.03
2019-02-10T13:09:24.984Z,2.97
2019-02-10T13:11:58.481Z,3.70
2019-02-10T13:14:31.127Z,3.00
2019-02-10T13:17:01.964Z,5.87
2019-02-10T13:19:31.785Z,5.03
2019-02-10T13:22:01.452Z,2.80
2019-02-10T13:24:31.220Z,1.83
2019-02-10T13:27:06.862Z,3.77
2019-02-10T13:29:37.163Z,4.77
2019-02-10T13:32:16.784Z,4.20
2019-02-10T13:34:47.914Z,5.77
2019-02-10T13:37:17.639Z,3.47
2019-02-10T13:39:47.339Z,2.10
2019-02-10T13:42:17.199Z,2.60
2019-02-10T13:44:46.950Z,3.83
2019-02-10T13:47:16.704Z,3.33
2019-02-10T13:49:48.424Z,3.17
2019-02-10T13:52:18.591Z,2.20
2019-02-10T13:54:52.385Z,2.23
2019-02-10T13:57:22.516Z,2.37
2019-02-10T13:59:54.536Z,3.30
2019-02-10T14:02:30.140Z,3.37
2019-02-10T14:05:05.396Z,3.30
2019-02-10T14:07:35.431Z,2.47
2019-02-10T14:10:06.611Z,4.03
2019-02-10T14:12:37.408Z,2.57
2019-02-10T14:15:12.190Z,1.80
2019-02-10T14:17:42.142Z,1.90
2019-02-10T14:20:16.242Z,4.77
2019-02-10T14:22:47.835Z,2.70
2019-02-10T14:25:17.854Z,2.77
2019-02-10T14:27:49.232Z,2.23
2019-02-10T14:30:19.001Z,2.73
2019-02-10T14:32:48.809Z,2.00
2019-02-10T14:35:21.985Z,4.27
2019-02-10T14:37:51.816Z,1.83
2019-02-10T14:40:21.524Z,3.10
2019-02-10T14:42:52.044Z,2.23
2019-02-10T14:45:22.078Z,2.67
2019-02-10T14:47:52.195Z,2.20
2019-02-10T14:50:21.879Z,2.87
2019-02-10T14:52:54.675Z,2.93
2019-02-10T14:55:24.757Z,2.70
2019-02-10T14:57:55.515Z,2.00
2019-02-10T15:00:25.270Z,2.83
2019-02-10T15:02:55.119Z,2.07
2019-02-10T15:05:24.905Z,1.70
2019-02-10T15:07:55.095Z,2.40
2019-02-10T15:10:43.569Z,2.80
2019-02-10T15:13:15.317Z,3.40
2019-02-10T15:15:49.656Z,2.60
2019-02-10T15:18:19.504Z,3.20
2019-02-10T15:20:49.637Z,3.60
2019-02-10T15:23:19.357Z,2.20
2019-02-10T15:25:52.722Z,3.00
2019-02-10T15:28:33.885Z,2.60
2019-02-10T15:31:21.619Z,2.60
2019-02-10T15:33:57.797Z,2.63
2019-02-10T15:36:29.259Z,2.60
2019-02-10T15:39:00.092Z,3.80
2019-02-10T15:41:32.082Z,5.63
2019-02-10T15:44:01.838Z,2.67
2019-02-10T15:46:32.754Z,4.73
2019-02-10T15:49:03.709Z,3.40
2019-02-10T15:51:37.126Z,3.83
2019-02-10T15:54:13.179Z,1.80
2019-02-10T15:56:42.956Z,3.53
2019-02-10T15:59:14.160Z,2.30
2019-02-10T16:01:56.998Z,3.70
2019-02-10T16:05:02.480Z,1.90
2019-02-10T16:08:01.111Z,2.33
2019-02-10T16:10:47.493Z,2.87
2019-02-10T16:14:09.502Z,2.30
2019-02-10T16:16:43.962Z,1.67
2019-02-10T16:19:32.697Z,1.83
2019-02-10T16:22:17.430Z,2.13
2019-02-10T16:24:53.906Z,2.00
2019-02-10T16:27:45.262Z,1.73
2019-02-10T16:30:21.610Z,2.50
2019-02-10T16:32:54.943Z,4.33
2019-02-10T16:35:29.170Z,2.73
2019-02-10T16:38:12.831Z,2.27
2019-02-10T16:41:05.931Z,2.63
2019-02-10T16:43:52.581Z,3.00
2019-02-10T16:46:24.771Z,3.50
2019-02-10T16:48:55.900Z,4.20
2019-02-10T16:51:26.710Z,4.27
2019-02-10T16:56:47.763Z,2.40
2019-02-10T16:59:18.673Z,2.17
2019-02-10T17:01:54.541Z,2.80
2019-02-10T17:04:24.986Z,2.50
2019-02-10T17:06:54.698Z,2.00
2019-02-10T17:09:25.263Z,3.10
2019-02-10T17:11:55.580Z,2.47
2019-02-10T17:14:25.518Z,3.10
2019-02-10T17:17:08.953Z,3.93
2019-02-10T17:19:49.292Z,4.17
2019-02-10T17:22:19.143Z,3.70
2019-02-10T17:24:49.345Z,3.37
2019-02-10T17:27:19.110Z,3.40
2019-02-10T17:29:59.253Z,4.93
2019-02-10T17:32:30.805Z,2.63
2019-02-10T17:35:00.706Z,1.90
2019-02-10T17:37:30.376Z,2.70
2019-02-10T17:40:00.275Z,1.93
2019-02-10T17:42:33.394Z,2.23
2019-02-10T17:45:10.524Z,2.73
2019-02-10T17:47:40.246Z,2.00
2019-02-10T17:50:10.674Z,2.90
2019-02-10T17:52:42.709Z,2.10
2019-02-10T17:55:12.369Z,1.70
2019-02-10T17:57:42.274Z,2.30
2019-02-10T18:00:12.775Z,2.77
2019-02-10T18:02:43.979Z,2.27
2019-02-10T18:05:13.971Z,1.70
2019-02-10T18:07:44.185Z,3.43
2019-02-10T18:12:59.100Z,5.27
2019-02-10T18:15:49.008Z,5.57
2019-02-10T18:18:46.597Z,5.40
2019-02-10T18:21:36.989Z,3.60
2019-02-10T18:24:43.467Z,2.50
2019-02-10T18:27:48.024Z,1.50
2019-02-10T18:30:53.006Z,3.13
2019-02-10T18:33:36.851Z,1.63
2019-02-10T18:36:33.371Z,2.10
2019-02-10T18:39:45.756Z,3.17
2019-02-10T18:42:42.965Z,1.50
2019-02-10T18:45:27.660Z,1.40
2019-02-10T18:48:21.069Z,1.17
2019-02-10T18:51:12.162Z,1.37
2019-02-10T18:54:10.034Z,1.87
2019-02-10T18:56:48.407Z,1.27
2019-02-10T18:59:28.141Z,1.37
2019-02-10T19:02:12.727Z,1.57
2019-02-10T19:05:08.482Z,1.00
2019-02-10T19:07:57.461Z,1.53
2019-02-10T19:10:46.270Z,1.87
2019-02-10T19:13:33.811Z,2.13
2019-02-10T19:16:09.778Z,4.13
2019-02-10T19:19:07.771Z,3.10
2019-02-10T19:21:48.811Z,2.10
2019-02-10T19:24:41.240Z,6.90
2019-02-10T19:27:29.937Z,4.37
2019-02-10T19:30:19.430Z,2.50
2019-02-10T19:33:10.544Z,2.07
2019-02-10T19:36:02.708Z,1.53
2019-02-10T19:38:45.152Z,2.10
2019-02-10T19:41:55.527Z,1.33
2019-02-10T19:44:39.814Z,2.70
2019-02-10T19:47:31.845Z,2.73
2019-02-10T19:50:30.354Z,2.67
2019-02-10T19:53:20.170Z,3.00
2019-02-10T19:56:07.576Z,2.60
2019-02-10T19:59:14.678Z,2.10
2019-02-10T20:02:05.291Z,1.40
2019-02-10T20:04:58.434Z,1.37
2019-02-10T20:07:49.885Z,2.13
2019-02-10T20:10:38.747Z,2.07
2019-02-10T20:13:33.455Z,0.90
2019-02-10T20:16:24.637Z,1.70
2019-02-10T20:19:07.037Z,1.83
2019-02-10T20:21:57.246Z,2.73
2019-02-10T20:24:54.650Z,2.10
2019-02-10T20:27:55.185Z,1.60
2019-02-10T20:30:43.800Z,1.67
2019-02-10T20:33:36.366Z,1.70
2019-02-10T20:36:23.985Z,1.20
2019-02-10T20:39:13.036Z,1.63
2019-02-10T20:41:54.162Z,3.93
2019-02-10T20:44:41.841Z,1.50
2019-02-10T20:47:20.796Z,1.87
2019-02-10T20:50:18.781Z,2.77
2019-02-10T20:53:04.527Z,2.27
2019-02-10T20:56:05.367Z,1.10
2019-02-10T20:58:50.248Z,0.97
2019-02-10T21:01:38.229Z,0.93
2019-02-10T21:04:41.058Z,0.70
2019-02-10T21:07:22.293Z,1.00
2019-02-10T21:10:13.091Z,0.60
2019-02-10T21:12:57.895Z,1.20
2019-02-10T21:15:52.688Z,0.93
2019-02-10T21:18:39.943Z,0.80
2019-02-10T21:21:28.742Z,0.40
2019-02-10T21:24:20.662Z,0.60
2019-02-10T21:27:01.868Z,0.50
2019-02-10T21:29:50.555Z,0.40
2019-02-10T21:32:36.477Z,0.40
2019-02-10T21:35:17.167Z,0.40
2019-02-10T21:37:52.947Z,0.50
2019-02-10T21:40:31.431Z,0.70
2019-02-10T21:43:35.349Z,0.30
2019-02-10T21:46:22.893Z,0.33
2019-02-10T21:48:59.214Z,0.20
2019-02-10T21:51:28.832Z,0.40
2019-02-10T21:53:58.531Z,0.43
2019-02-10T21:56:28.233Z,0.33
2019-02-10T21:58:57.852Z,0.17
2019-02-10T22:01:27.581Z,0.43
2019-02-10T22:03:57.207Z,0.67
2019-02-10T22:06:26.873Z,0.37
2019-02-10T22:08:56.471Z,0.40
2019-02-10T22:11:26.180Z,0.43
2019-02-10T22:13:55.793Z,0.47
2019-02-10T22:16:25.542Z,0.40
2019-02-10T22:18:55.484Z,0.20
2019-02-10T22:21:25.128Z,0.30
2019-02-10T22:23:54.826Z,1.43
2019-02-10T22:26:24.514Z,0.27
2019-02-10T22:28:54.205Z,0.30
2019-02-10T22:31:23.904Z,0.30
2019-02-10T22:33:53.579Z,0.23
2019-02-10T22:36:23.248Z,0.40
2019-02-10T22:38:53.031Z,2.47
2019-02-10T22:41:22.875Z,0.30
2019-02-10T22:43:52.614Z,0.50
2019-02-10T22:46:22.271Z,1.43
2019-02-10T22:48:51.941Z,0.40
2019-02-10T22:51:22.462Z,2.83
2019-02-10T22:53:52.521Z,0.33
2019-02-10T22:56:22.205Z,0.20
2019-02-10T22:58:51.989Z,0.87
2019-02-10T23:01:21.859Z,0.50
2019-02-10T23:03:51.459Z,1.73
2019-02-10T23:06:21.120Z,0.30
2019-02-10T23:08:50.794Z,2.17
2019-02-10T23:11:20.448Z,0.67
2019-02-10T23:13:50.136Z,0.43
2019-02-10T23:16:19.966Z,0.40
2019-02-10T23:18:49.559Z,0.67
2019-02-10T23:21:19.226Z,0.30
2019-02-10T23:23:49.364Z,1.13
2019-02-10T23:26:18.955Z,0.30
2019-02-10T23:28:49.578Z,0.50
2019-02-10T23:31:20.571Z,0.43
2019-02-10T23:33:50.334Z,0.70
2019-02-10T23:36:19.995Z,0.57
2019-02-10T23:38:49.795Z,0.50
2019-02-10T23:41:19.462Z,0.70
2019-02-10T23:43:49.098Z,1.17
2019-02-10T23:46:18.749Z,0.40
2019-02-10T23:48:48.400Z,0.50
2019-02-10T23:51:18.050Z,0.57
2019-02-10T23:53:47.731Z,1.07
2019-02-10T23:56:17.378Z,0.50
2019-02-10T23:58:47.017Z,1.80
